Time;durP1;ratioP1;P1;durP2;ratioP2;P2;SDS_P1;SDS_P2;PMS_P1;PMS_P2;Temp;Humidity;BMP_temperature;BMP_pressure;BME280_temperature;BME280_humidity;BME280_pressure;Samples;Min_cycle;Max_cycle;Signal;HPM_P1;HPM_P2
2023/05/24 00:01:06;;;;;;;9.43;4.65;;;;;;;7.79;86.95;102278.34;5029321;28;20029;-81
2023/05/24 00:03:33;;;;;;;15.73;4.45;;;;;;;7.75;87.55;102285.47;5041982;28;20017;-83
2023/05/24 00:05:59;;;;;;;10.68;4.22;;;;;;;7.76;87.68;102283.69;5041950;28;20028;-83
2023/05/24 00:08:25;;;;;;;10.35;4.03;;;;;;;7.76;87.71;102271.31;5044264;28;20133;-83
2023/05/24 00:10:50;;;;;;;10.68;4.00;;;;;;;7.77;87.53;102275.69;5046369;28;20032;-83
2023/05/24 00:13:15;;;;;;;12.30;4.68;;;;;;;7.74;87.75;102271.34;5019651;28;20056;-83
2023/05/24 00:15:41;;;;;;;14.05;4.15;;;;;;;7.77;87.62;102275.69;5021680;28;20018;-83
2023/05/24 00:18:06;;;;;;;11.73;4.15;;;;;;;7.75;88.01;102269.56;5026040;28;20772;-83
2023/05/24 00:20:31;;;;;;;9.85;4.10;;;;;;;7.74;88.12;102267.81;5037817;28;20466;-83
2023/05/24 00:22:57;;;;;;;11.27;4.45;;;;;;;7.72;88.30;102264.28;5026448;28;20041;-83
2023/05/24 00:25:22;;;;;;;10.88;4.53;;;;;;;7.72;88.66;102259.00;5026324;28;20025;-80
2023/05/24 00:27:47;;;;;;;12.48;4.40;;;;;;;7.69;88.59;102266.97;5024581;28;20044;-83
2023/05/24 00:30:13;;;;;;;14.23;4.78;;;;;;;7.70;88.46;102252.88;5029629;28;20060;-81
2023/05/24 00:32:38;;;;;;;16.42;5.25;;;;;;;7.73;88.22;102259.00;5023677;28;20116;-83
2023/05/24 00:35:04;;;;;;;12.23;4.90;;;;;;;7.66;88.43;102251.16;5024932;28;20068;-83
2023/05/24 00:37:29;;;;;;;12.35;5.03;;;;;;;7.70;88.39;102260.81;5025344;28;20087;-82
2023/05/24 00:39:55;;;;;;;12.75;5.07;;;;;;;7.57;88.29;102256.63;5029237;28;20083;-82
2023/05/24 00:42:20;;;;;;;14.88;5.43;;;;;;;7.57;88.52;102253.97;5024370;28;20633;-83
2023/05/24 00:44:45;;;;;;;11.15;5.53;;;;;;;7.52;88.37;102255.78;5024996;28;20021;-81
2023/05/24 00:47:11;;;;;;;13.70;5.95;;;;;;;7.48;89.02;102252.31;5024584;28;20113;-82
2023/05/24 00:49:36;;;;;;;11.88;5.30;;;;;;;7.42;89.10;102240.03;5035961;28;20021;-82
2023/05/24 00:52:02;;;;;;;9.82;5.25;;;;;;;7.42;89.65;102257.72;5025347;28;20060;-82
2023/05/24 00:54:28;;;;;;;12.85;5.43;;;;;;;7.37;89.74;102247.19;5025466;28;20549;-84
2023/05/24 00:56:55;;;;;;;11.70;5.72;;;;;;;7.39;89.93;102250.69;5031273;28;20041;-84
2023/05/24 00:59:21;;;;;;;14.15;6.35;;;;;;;7.33;89.55;102249.91;5032749;28;20235;-83
2023/05/24 01:01:47;;;;;;;13.93;5.80;;;;;;;7.34;89.79;102257.81;5024553;28;20428;-83
2023/05/24 01:04:12;;;;;;;12.05;5.47;;;;;;;7.24;89.86;102245.63;5024395;28;20029;-83
2023/05/24 01:07:02;;;;;;;15.98;5.65;;;;;;;7.30;89.96;102247.31;5031761;28;20216;-83
2023/05/24 01:09:36;;;;;;;11.63;5.60;;;;;;;7.28;90.22;102247.34;5036557;28;20474;-82
2023/05/24 01:12:29;;;;;;;12.85;5.45;;;;;;;7.20;90.47;102244.78;5030295;28;20114;-83
2023/05/24 01:15:30;;;;;;;12.38;5.10;;;;;;;7.20;90.02;102231.56;5044212;28;20718;-82
2023/05/24 01:18:06;;;;;;;16.10;5.55;;;;;;;7.16;91.39;102231.63;5021777;28;20048;-82
2023/05/24 01:20:33;;;;;;;12.70;5.10;;;;;;;7.07;91.97;102234.41;5064402;28;20870;-82
2023/05/24 01:23:41;;;;;;;11.40;5.53;;;;;;;7.07;91.63;102235.28;5050842;28;20031;-83
2023/05/24 01:26:25;;;;;;;13.50;5.78;;;;;;;7.06;92.87;102240.56;5026383;28;20128;-83
2023/05/24 01:28:51;;;;;;;15.52;5.82;;;;;;;6.98;93.09;102223.06;5052869;28;20393;-82
2023/05/24 01:31:17;;;;;;;12.13;5.30;;;;;;;7.03;93.50;102235.34;5044117;28;20029;-83
2023/05/24 01:33:43;;;;;;;12.10;5.25;;;;;;;7.00;93.67;102230.97;5044249;28;20024;-83
2023/05/24 01:36:09;;;;;;;13.05;5.63;;;;;;;6.97;93.25;102229.22;5026476;28;20020;-82
2023/05/24 01:38:36;;;;;;;9.07;4.93;;;;;;;6.94;93.65;102228.41;5049901;28;20477;-83
2023/05/24 01:41:18;;;;;;;10.52;4.95;;;;;;;6.90;93.81;102229.34;5044778;28;20044;-82
2023/05/24 01:43:55;;;;;;;15.82;5.55;;;;;;;6.80;93.90;102225.94;5045597;28;20023;-83
2023/05/24 01:46:36;;;;;;;12.77;5.60;;;;;;;6.89;94.11;102233.72;5043832;28;20038;-82
2023/05/24 01:49:13;;;;;;;12.00;5.15;;;;;;;6.78;94.05;102230.38;5047536;28;20043;-82
2023/05/24 01:51:48;;;;;;;13.10;5.50;;;;;;;6.72;94.73;102220.72;5043428;28;20053;-83
2023/05/24 01:54:16;;;;;;;11.23;4.93;;;;;;;6.61;95.09;102216.50;5045948;28;20059;-82
2023/05/24 01:56:45;;;;;;;12.70;5.38;;;;;;;6.60;95.20;102227.94;5045163;28;20020;-83
2023/05/24 01:59:11;;;;;;;13.63;4.95;;;;;;;6.62;96.17;102213.81;5055161;28;20024;-83
2023/05/24 02:01:37;;;;;;;16.55;5.75;;;;;;;6.62;97.22;102215.59;5043795;28;20024;-82
2023/05/24 02:04:04;;;;;;;12.65;5.55;;;;;;;6.60;97.44;102217.38;5043714;28;20190;-84
2023/05/24 02:06:29;;;;;;;11.18;5.00;;;;;;;6.62;96.89;102218.22;5043634;28;20033;-83
2023/05/24 02:08:55;;;;;;;11.07;4.95;;;;;;;6.61;96.40;102222.66;5037680;28;20089;-82
2023/05/24 02:11:20;;;;;;;11.73;5.40;;;;;;;6.52;97.44;102216.56;5024846;28;20115;-83
2023/05/24 02:13:45;;;;;;;12.65;5.75;;;;;;;6.53;97.71;102221.88;5042942;28;20041;-83
2023/05/24 02:16:11;;;;;;;14.32;5.30;;;;;;;6.55;97.75;102219.19;5053254;28;20024;-83
2023/05/24 02:18:36;;;;;;;12.05;4.90;;;;;;;6.52;98.12;102222.78;5036088;28;20031;-83
2023/05/24 02:21:01;;;;;;;11.73;5.53;;;;;;;6.43;97.98;102207.84;5043660;28;20490;-82
2023/05/24 02:23:27;;;;;;;11.07;4.85;;;;;;;6.52;97.56;102225.41;5042277;28;20017;-81
2023/05/24 02:25:53;;;;;;;12.45;5.13;;;;;;;6.43;97.11;102222.84;5042984;28;20211;-79
2023/05/24 02:28:19;;;;;;;12.88;5.60;;;;;;;6.33;97.66;102226.50;5051827;28;20024;-82
2023/05/24 02:30:44;;;;;;;10.75;4.85;;;;;;;6.36;97.91;102232.66;5028187;28;20043;-82
2023/05/24 02:33:11;;;;;;;11.38;4.65;;;;;;;6.34;98.15;102231.78;5042762;28;20082;-82
2023/05/24 02:35:36;;;;;;;10.75;4.90;;;;;;;6.29;98.32;102238.00;5024156;28;20021;-82
2023/05/24 02:38:05;;;;;;;10.35;4.55;;;;;;;6.35;98.00;102233.50;5049780;28;20064;-83
2023/05/24 02:40:31;;;;;;;11.85;5.20;;;;;;;6.32;97.88;102228.28;5045116;28;20371;-83
2023/05/24 02:42:56;;;;;;;9.57;4.57;;;;;;;6.30;97.79;102227.41;5042985;28;20025;-83
2023/05/24 02:45:21;;;;;;;9.73;4.82;;;;;;;6.25;98.08;102229.22;5042482;28;20029;-82
2023/05/24 02:47:47;;;;;;;14.60;5.55;;;;;;;6.16;98.43;102222.28;5048327;28;20028;-82
2023/05/24 02:50:12;;;;;;;11.15;5.28;;;;;;;6.22;98.81;102231.91;5044578;28;20021;-83
2023/05/24 02:52:37;;;;;;;12.32;5.03;;;;;;;6.13;99.13;102230.22;5043482;28;20029;-83
2023/05/24 02:55:04;;;;;;;13.65;5.80;;;;;;;6.15;99.57;102227.59;5044529;28;20063;-82
2023/05/24 02:57:32;;;;;;;16.42;5.75;;;;;;;6.12;99.69;102224.97;5029116;28;20032;-82
2023/05/24 02:59:58;;;;;;;11.45;5.47;;;;;;;6.09;100.00;102225.88;5042843;28;20016;-82
2023/05/24 03:02:24;;;;;;;12.75;5.40;;;;;;;6.14;99.92;102228.47;5042217;28;20108;-82
2023/05/24 03:04:49;;;;;;;10.43;5.30;;;;;;;6.10;100.00;102232.91;5042196;28;20032;-83
2023/05/24 03:07:16;;;;;;;12.18;5.30;;;;;;;6.04;99.94;102229.47;5043925;28;20733;-82
2023/05/24 03:09:41;;;;;;;13.38;6.03;;;;;;;5.97;100.00;102239.19;5055278;28;20039;-82
2023/05/24 03:12:07;;;;;;;13.60;5.75;;;;;;;6.06;100.00;102230.31;5042005;28;20052;-82
2023/05/24 03:14:32;;;;;;;12.23;5.82;;;;;;;5.97;100.00;102234.78;5043148;28;20028;-82
2023/05/24 03:16:57;;;;;;;11.57;5.38;;;;;;;5.99;100.00;102232.16;5042504;28;20048;-82
2023/05/24 03:19:23;;;;;;;12.65;5.40;;;;;;;5.96;100.00;102226.88;5052398;28;20036;-83
2023/05/24 03:21:48;;;;;;;12.85;5.05;;;;;;;5.91;100.00;102231.31;5041640;28;20088;-82
2023/05/24 03:24:13;;;;;;;14.40;5.63;;;;;;;5.95;100.00;102223.38;5042065;28;20495;-81
2023/05/24 03:26:39;;;;;;;12.45;5.50;;;;;;;5.90;100.00;102216.34;5041993;28;20455;-82
2023/05/24 03:29:05;;;;;;;13.70;6.10;;;;;;;5.91;100.00;102215.47;5056685;28;20040;-82
2023/05/24 03:31:31;;;;;;;12.82;6.10;;;;;;;5.78;100.00;102219.13;5050786;28;20497;-82
2023/05/24 03:33:56;;;;;;;13.43;5.75;;;;;;;5.82;100.00;102221.72;5041726;28;20033;-82
2023/05/24 03:36:21;;;;;;;14.45;6.68;;;;;;;5.87;100.00;102219.91;5041231;28;20035;-82
2023/05/24 03:38:47;;;;;;;10.98;5.95;;;;;;;5.88;100.00;102221.63;5056424;28;20056;-82
2023/05/24 03:41:12;;;;;;;14.85;6.55;;;;;;;5.88;100.00;102224.28;5041867;28;20020;-83
2023/05/24 03:43:37;;;;;;;14.55;6.80;;;;;;;5.84;100.00;102221.69;5023622;28;20029;-82
2023/05/24 03:46:03;;;;;;;17.35;7.13;;;;;;;5.89;100.00;102227.78;5042413;28;20039;-82
2023/05/24 03:48:28;;;;;;;11.68;6.32;;;;;;;5.88;100.00;102239.25;5053275;28;20040;-82
2023/05/24 03:50:54;;;;;;;13.32;6.60;;;;;;;5.87;100.00;102225.19;5023910;28;20259;-82
2023/05/24 03:53:20;;;;;;;17.10;6.65;;;;;;;5.90;100.00;102217.22;5061318;28;20028;-83
2023/05/24 03:55:45;;;;;;;14.20;6.95;;;;;;;5.86;100.00;102217.28;5046545;28;20083;-81
2023/05/24 03:58:11;;;;;;;14.35;6.72;;;;;;;5.92;100.00;102225.16;5057366;28;20376;-82
2023/05/24 04:00:37;;;;;;;13.05;7.03;;;;;;;5.94;100.00;102229.56;5046568;28;20025;-82
2023/05/24 04:03:05;;;;;;;16.85;7.47;;;;;;;5.95;100.00;102214.56;5045954;28;20082;-83
2023/05/24 04:05:30;;;;;;;12.57;6.57;;;;;;;5.99;100.00;102221.59;5046404;28;20021;-83
2023/05/24 04:07:56;;;;;;;18.08;7.40;;;;;;;6.01;100.00;102224.19;5052400;28;20025;-84
2023/05/24 04:10:21;;;;;;;13.90;7.45;;;;;;;5.98;100.00;102220.72;5054989;28;20032;-82
2023/05/24 04:12:47;;;;;;;16.75;7.35;;;;;;;6.00;100.00;102220.69;5027544;28;20110;-82
2023/05/24 04:15:14;;;;;;;19.88;7.78;;;;;;;6.05;100.00;102221.50;5045345;28;20510;-82
2023/05/24 04:17:41;;;;;;;15.75;7.57;;;;;;;6.07;100.00;102224.16;5055457;28;20111;-82
2023/05/24 04:20:08;;;;;;;17.67;7.57;;;;;;;6.08;100.00;102233.81;5049601;28;20051;-83
2023/05/24 04:22:35;;;;;;;16.67;8.45;;;;;;;6.15;100.00;102230.25;5046396;28;20054;-82
2023/05/24 04:25:02;;;;;;;19.27;8.43;;;;;;;6.09;100.00;102233.78;5046438;28;20044;-82
2023/05/24 04:27:29;;;;;;;17.17;8.70;;;;;;;6.12;100.00;102243.47;5035581;28;20094;-82
2023/05/24 04:29:54;;;;;;;21.92;9.25;;;;;;;6.21;100.00;102232.81;5055015;28;20389;-81
2023/05/24 04:32:20;;;;;;;15.52;7.97;;;;;;;6.12;100.00;102225.84;5049025;28;20173;-82
2023/05/24 04:34:45;;;;;;;23.85;8.98;;;;;;;6.19;100.00;102229.31;5045765;28;20029;-81
2023/05/24 04:37:12;;;;;;;21.27;8.55;;;;;;;6.21;100.00;102222.22;5051414;28;20053;-82
2023/05/24 04:39:38;;;;;;;19.13;8.88;;;;;;;6.25;100.00;102216.00;5027481;28;20387;-82
2023/05/24 04:42:03;;;;;;;17.80;8.90;;;;;;;6.31;100.00;102218.59;5045955;28;20020;-82
2023/05/24 04:44:29;;;;;;;18.25;8.52;;;;;;;6.34;100.00;102231.78;5045443;28;20052;-82
2023/05/24 04:46:54;;;;;;;19.77;9.48;;;;;;;6.40;100.00;102234.38;5049628;28;20024;-82
2023/05/24 04:49:19;;;;;;;18.60;9.77;;;;;;;6.44;100.00;102232.56;5042863;28;20032;-81
2023/05/24 04:51:45;;;;;;;18.80;9.65;;;;;;;6.49;100.00;102239.53;5047054;28;20025;-82
2023/05/24 04:54:11;;;;;;;20.10;8.95;;;;;;;6.56;100.00;102226.22;5044784;28;20028;-82
2023/05/24 04:56:37;;;;;;;19.65;9.75;;;;;;;6.63;100.00;102236.72;5031827;28;20130;-82
2023/05/24 04:59:07;;;;;;;20.73;8.48;;;;;;;6.69;100.00;102241.97;5053896;28;20099;-82
2023/05/24 05:01:33;;;;;;;17.25;8.38;;;;;;;6.74;100.00;102232.19;5049184;28;20378;-82
2023/05/24 05:03:59;;;;;;;19.42;9.48;;;;;;;6.88;100.00;102231.13;5052538;28;20025;-82
2023/05/24 05:06:24;;;;;;;21.52;9.25;;;;;;;6.97;100.00;102233.63;5031085;28;20028;-82
2023/05/24 05:08:50;;;;;;;17.73;8.82;;;;;;;7.12;100.00;102237.84;5052216;28;20514;-82
2023/05/24 05:11:17;;;;;;;19.67;8.68;;;;;;;7.23;100.00;102235.91;5043941;28;20108;-82
2023/05/24 05:13:43;;;;;;;18.10;8.23;;;;;;;7.31;100.00;102231.38;5044000;28;20041;-82
2023/05/24 05:16:08;;;;;;;18.88;8.95;;;;;;;7.42;100.00;102224.16;5047593;28;20030;-82
2023/05/24 05:18:33;;;;;;;26.67;10.85;;;;;;;7.55;100.00;102234.56;5047951;28;20035;-82
2023/05/24 05:20:59;;;;;;;18.50;8.43;;;;;;;7.67;100.00;102229.94;5025973;28;20044;-82
2023/05/24 05:23:24;;;;;;;20.95;9.07;;;;;;;7.74;100.00;102228.06;5047686;28;20093;-82
2023/05/24 05:25:50;;;;;;;23.90;9.60;;;;;;;7.80;100.00;102235.88;5054185;28;20036;-81
2023/05/24 05:28:15;;;;;;;22.98;9.00;;;;;;;7.90;100.00;102237.50;5046516;28;20505;-81
2023/05/24 05:30:41;;;;;;;19.55;8.98;;;;;;;7.98;100.00;102232.94;5043282;28;20040;-82
2023/05/24 05:33:07;;;;;;;20.60;8.55;;;;;;;8.09;100.00;102243.34;5044487;28;20060;-82
2023/05/24 05:35:32;;;;;;;22.85;9.43;;;;;;;8.15;100.00;102234.38;5044493;28;20025;-82
2023/05/24 05:37:58;;;;;;;21.38;9.15;;;;;;;8.32;100.00;102245.56;5036834;28;20676;-82
2023/05/24 05:40:23;;;;;;;24.48;9.90;;;;;;;8.43;100.00;102246.25;5043813;28;20465;-83
2023/05/24 05:42:48;;;;;;;20.80;8.82;;;;;;;8.54;100.00;102229.25;5043899;28;20172;-83
2023/05/24 05:45:15;;;;;;;22.67;9.65;;;;;;;8.76;100.00;102238.50;5043382;28;20248;-82
2023/05/24 05:47:40;;;;;;;22.52;8.07;;;;;;;9.02;100.00;102232.63;5032696;28;20056;-83
2023/05/24 05:50:07;;;;;;;20.20;9.68;;;;;;;9.26;99.14;102231.22;5038335;28;20170;-82
2023/05/24 05:52:32;;;;;;;21.23;8.48;;;;;;;9.37;98.07;102234.50;5044049;28;20024;-83
2023/05/24 05:54:59;;;;;;;23.35;9.27;;;;;;;9.63;97.54;102240.97;5025470;28;20021;-83
2023/05/24 05:57:24;;;;;;;19.17;7.97;;;;;;;9.84;96.64;102244.88;5048006;28;20055;-83
2023/05/24 05:59:50;;;;;;;22.05;8.38;;;;;;;9.98;94.84;102238.28;5025038;28;20390;-82
2023/05/24 06:02:17;;;;;;;22.27;8.98;;;;;;;10.14;93.08;102243.19;5043609;28;20029;-83
2023/05/24 06:04:43;;;;;;;27.27;8.82;;;;;;;10.24;92.19;102242.03;5025632;28;20013;-83
2023/05/24 06:07:08;;;;;;;21.75;8.30;;;;;;;10.40;91.58;102235.41;5045474;28;20028;-83
2023/05/24 06:09:33;;;;;;;25.27;8.13;;;;;;;10.62;90.54;102242.81;5043616;28;20020;-83
2023/05/24 06:11:59;;;;;;;24.52;8.05;;;;;;;10.76;90.06;102243.25;5042955;28;20099;-83
2023/05/24 06:14:24;;;;;;;25.75;9.20;;;;;;;10.92;88.79;102244.56;5042264;28;20037;-83
2023/05/24 06:16:51;;;;;;;26.95;8.45;;;;;;;10.98;87.37;102255.00;5052794;28;20115;-81
2023/05/24 06:19:17;;;;;;;19.65;8.70;;;;;;;11.03;86.53;102260.19;5053688;28;20496;-82
2023/05/24 06:21:46;;;;;;;21.48;8.45;;;;;;;11.32;85.71;102263.75;5043210;28;20378;-82
2023/05/24 06:24:27;;;;;;;19.35;8.00;;;;;;;11.58;nan;102260.25;5042916;28;20684;-83
2023/05/24 06:26:52;;;;;;;19.35;8.52;;;;;;;11.73;84.57;102262.44;5052511;28;20040;-82
2023/05/24 06:29:19;;;;;;;17.85;7.63;;;;;;;11.75;82.13;102270.41;5042555;28;20025;-82
2023/05/24 06:31:46;;;;;;;20.50;8.23;;;;;;;11.75;81.99;102273.06;5043242;28;20508;-82
2023/05/24 06:34:12;;;;;;;20.23;8.32;;;;;;;11.79;81.14;102272.91;5043138;28;20029;-83
2023/05/24 06:36:41;;;;;;;25.45;8.82;;;;;;;11.94;80.92;102267.09;5050812;28;20456;-82
2023/05/24 06:39:09;;;;;;;21.63;8.15;;;;;;;12.05;79.40;102272.06;5044594;28;20226;-82
2023/05/24 06:41:34;;;;;;;17.67;8.10;;;;;;;12.15;79.10;102259.25;5022292;28;20017;-82
2023/05/24 06:44:00;;;;;;;19.05;7.60;;;;;;;12.13;77.90;102263.81;5043133;28;20021;-82
2023/05/24 06:46:25;;;;;;;21.65;7.85;;;;;;;12.27;78.68;102264.19;5049870;28;20032;-82
2023/05/24 06:48:51;;;;;;;19.02;7.47;;;;;;;12.46;77.37;102267.94;5043286;28;20033;-83
2023/05/24 06:51:16;;;;;;;22.15;8.43;;;;;;;12.59;77.08;102252.34;5042010;28;20029;-83
2023/05/24 06:53:41;;;;;;;23.13;9.15;;;;;;;12.73;76.65;102259.84;5042575;28;20044;-82
2023/05/24 06:56:08;;;;;;;21.00;9.05;;;;;;;12.74;75.98;102250.88;5046337;28;20667;-82
2023/05/24 06:58:34;;;;;;;18.45;8.68;;;;;;;12.88;75.26;102261.94;5024686;28;20036;-82
2023/05/24 07:00:59;;;;;;;17.58;8.70;;;;;;;12.88;75.18;102266.41;5042374;28;20013;-82
2023/05/24 07:03:25;;;;;;;19.67;7.88;;;;;;;13.04;74.99;102264.00;5041944;28;20021;-81
2023/05/24 07:05:50;;;;;;;18.75;7.97;;;;;;;13.08;74.15;102255.81;5046245;28;20114;-82
2023/05/24 07:08:16;;;;;;;20.38;8.65;;;;;;;13.24;74.64;102264.13;5042025;28;20040;-82
2023/05/24 07:10:42;;;;;;;21.58;8.35;;;;;;;13.45;73.99;102268.63;5041832;28;20036;-82
2023/05/24 07:13:08;;;;;;;21.80;8.52;;;;;;;13.23;72.09;102261.53;5041326;28;20049;-83
2023/05/24 07:15:33;;;;;;;17.65;7.72;;;;;;;13.33;73.51;102266.44;5026601;28;20036;-83
2023/05/24 07:17:59;;;;;;;14.90;7.50;;;;;;;13.69;71.68;102272.13;5048733;28;20039;-83
2023/05/24 07:20:24;;;;;;;21.15;7.40;;;;;;;14.05;68.88;102271.53;5040951;28;20025;-83
2023/05/24 07:22:50;;;;;;;22.35;7.18;;;;;;;14.46;67.09;102266.16;5023206;28;20032;-83
2023/05/24 07:25:16;;;;;;;14.80;7.07;;;;;;;14.60;66.70;102265.59;5041152;28;20339;-83
2023/05/24 07:27:42;;;;;;;14.93;6.15;;;;;;;15.01;62.80;102270.88;5048127;28;20025;-83
2023/05/24 07:30:07;;;;;;;14.25;6.20;;;;;;;15.64;63.84;102272.28;5023741;28;20033;-83
2023/05/24 07:32:36;;;;;;;12.32;6.18;;;;;;;15.73;60.38;102270.97;5041118;28;20083;-82
2023/05/24 07:35:01;;;;;;;10.57;5.32;;;;;;;16.19;57.31;102268.63;5041072;28;20032;-83
2023/05/24 07:37:26;;;;;;;12.15;5.65;;;;;;;16.27;54.17;102263.72;5053122;28;20025;-83
2023/05/24 07:39:52;;;;;;;13.85;5.22;;;;;;;16.68;54.12;102268.72;5041123;28;20025;-83
2023/05/24 07:42:17;;;;;;;13.95;6.13;;;;;;;16.96;52.87;102275.31;5040611;28;20390;-84
2023/05/24 07:44:42;;;;;;;15.85;5.60;;;;;;;16.82;51.97;102271.56;5043212;28;20584;-85
2023/05/24 07:47:09;;;;;;;13.18;5.60;;;;;;;16.92;52.92;102262.00;5046637;28;20090;-83
2023/05/24 07:49:35;;;;;;;13.70;6.00;;;;;;;16.91;53.20;102268.34;5041263;28;20024;-83
2023/05/24 07:52:02;;;;;;;12.00;5.72;;;;;;;17.28;53.26;102266.31;5040916;28;20024;-81
2023/05/24 07:54:28;;;;;;;19.33;6.43;;;;;;;17.74;50.44;102263.69;5040685;28;20024;-82
2023/05/24 07:56:53;;;;;;;12.55;5.82;;;;;;;17.78;48.72;102275.16;5052775;28;20102;-83
2023/05/24 07:59:18;;;;;;;12.70;5.40;;;;;;;17.37;48.30;102267.59;5041693;28;20871;-83
2023/05/24 08:01:44;;;;;;;11.60;5.43;;;;;;;17.14;50.93;102271.63;5022881;28;20028;-83
2023/05/24 08:04:10;;;;;;;12.65;5.30;;;;;;;17.47;51.40;102276.00;5041066;28;20033;-83
2023/05/24 08:06:35;;;;;;;12.38;5.13;;;;;;;17.13;50.11;102264.47;5045999;28;20150;-82
2023/05/24 08:09:04;;;;;;;13.27;5.53;;;;;;;17.14;51.85;102271.63;5022728;28;20453;-82
2023/05/24 08:11:29;;;;;;;16.77;6.87;;;;;;;18.21;48.54;102259.13;5001558;28;1097149;-82
2023/05/24 08:13:55;;;;;;;14.07;5.55;;;;;;;19.47;46.70;102273.66;5023512;28;20501;-82
2023/05/24 08:16:20;;;;;;;11.27;4.75;;;;;;;20.07;41.41;102270.56;5053407;28;20068;-83
2023/05/24 08:18:45;;;;;;;12.63;5.05;;;;;;;20.74;40.91;102268.59;5024687;28;20025;-83
2023/05/24 08:21:11;;;;;;;11.10;4.60;;;;;;;21.28;39.73;102260.16;5041393;28;20060;-83
2023/05/24 08:23:36;;;;;;;12.68;4.93;;;;;;;21.76;40.22;102262.03;5041519;28;20028;-83
2023/05/24 08:26:02;;;;;;;13.57;5.28;;;;;;;21.99;38.42;102266.59;5049355;28;20043;-83
2023/05/24 08:28:28;;;;;;;12.35;4.80;;;;;;;22.31;37.91;102252.38;5042101;28;20025;-84
2023/05/24 08:30:53;;;;;;;13.00;4.35;;;;;;;21.08;38.34;102266.16;5041018;28;20028;-83
2023/05/24 08:33:19;;;;;;;9.30;4.45;;;;;;;20.20;39.83;102271.47;5041274;28;20079;-83
2023/05/24 08:35:44;;;;;;;10.00;4.75;;;;;;;21.14;39.61;102258.44;5027703;28;20029;-83
2023/05/24 08:38:10;;;;;;;11.95;4.50;;;;;;;22.07;37.57;102257.84;5042567;28;20040;-83
2023/05/24 08:40:35;;;;;;;9.10;5.03;;;;;;;21.13;38.12;102258.56;5045159;28;20790;-83
2023/05/24 08:43:01;;;;;;;12.30;5.00;;;;;;;20.74;39.80;102260.47;5045466;28;20103;-83
2023/05/24 08:45:31;;;;;;;14.90;5.00;;;;;;;21.63;38.86;102262.09;5052840;28;20035;-82
2023/05/24 08:47:57;;;;;;;13.05;4.80;;;;;;;22.25;36.58;102256.47;5053184;28;20029;-83
2023/05/24 08:50:23;;;;;;;10.55;4.07;;;;;;;22.59;35.31;102249.22;5045396;28;20016;-83
2023/05/24 08:52:50;;;;;;;13.25;4.97;;;;;;;22.68;34.74;102244.91;5027322;28;20017;-82
2023/05/24 08:55:16;;;;;;;10.77;4.32;;;;;;;22.90;36.00;102254.94;5030395;28;20047;-84
2023/05/24 08:57:43;;;;;;;13.18;4.82;;;;;;;23.41;35.11;102253.50;5034876;28;20033;-84
2023/05/24 09:00:11;;;;;;;10.25;4.20;;;;;;;23.76;33.43;102256.03;5045691;28;20033;-84
2023/05/24 09:02:41;;;;;;;8.60;4.30;;;;;;;24.47;33.67;102248.13;5045364;28;20093;-83
2023/05/24 09:05:10;;;;;;;11.48;4.93;;;;;;;25.25;32.31;102241.16;5049226;28;20035;-83
2023/05/24 09:07:36;;;;;;;9.02;4.50;;;;;;;24.84;31.83;102245.72;5061427;28;20128;-83
2023/05/24 09:10:07;;;;;;;9.98;4.35;;;;;;;22.92;34.98;102247.53;5045915;28;20471;-83
2023/05/24 09:12:35;;;;;;;12.07;4.80;;;;;;;21.39;36.40;102238.56;5047674;28;20055;-81
2023/05/24 09:15:01;;;;;;;10.20;4.40;;;;;;;20.79;39.00;102252.88;5049116;28;20361;-81
2023/05/24 09:17:29;;;;;;;11.73;4.65;;;;;;;21.37;37.62;102245.97;5045437;28;20059;-82
2023/05/24 09:19:57;;;;;;;12.98;4.43;;;;;;;20.95;38.36;102246.38;5044936;28;20024;-83
2023/05/24 09:22:24;;;;;;;15.35;5.05;;;;;;;21.93;36.83;102250.78;5043993;28;20032;-83
2023/05/24 09:24:51;;;;;;;12.07;4.63;;;;;;;23.04;34.53;102243.84;5047954;28;20484;-84
2023/05/24 09:27:17;;;;;;;10.07;4.20;;;;;;;22.74;34.45;102252.59;5054866;28;20017;-83
2023/05/24 09:29:45;;;;;;;11.82;4.30;;;;;;;21.68;36.04;102254.47;5043785;28;20021;-81
2023/05/24 09:32:13;;;;;;;11.10;4.15;;;;;;;20.47;37.20;102259.69;5045696;28;20021;-82
2023/05/24 09:34:42;;;;;;;10.55;4.50;;;;;;;20.53;39.87;102245.78;5058699;28;20024;-83
2023/05/24 09:37:12;;;;;;;10.38;4.15;;;;;;;22.48;36.35;102248.34;5049050;28;20112;-82
2023/05/24 09:39:40;;;;;;;13.45;5.05;;;;;;;24.28;32.54;102236.06;5027294;28;20040;-83
2023/05/24 09:42:06;;;;;;;11.25;4.15;;;;;;;25.44;31.08;102241.19;5027623;28;20017;-84
2023/05/24 09:44:31;;;;;;;11.27;4.25;;;;;;;26.56;29.07;102230.66;5029597;28;20043;-84
2023/05/24 09:47:03;;;;;;;8.23;3.65;;;;;;;26.68;27.37;102232.19;5028097;28;20497;-83
2023/05/24 09:49:29;;;;;;;14.25;4.63;;;;;;;27.52;26.91;102233.88;5042373;28;20043;-83
2023/05/24 09:51:55;;;;;;;8.98;4.40;;;;;;;28.10;25.49;102233.41;5043051;28;20075;-83
2023/05/24 09:54:20;;;;;;;9.00;4.00;;;;;;;28.39;25.57;102227.66;5045274;28;20122;-84
2023/05/24 09:56:46;;;;;;;11.77;4.30;;;;;;;28.08;25.04;102227.22;5057330;28;20032;-84
2023/05/24 09:59:12;;;;;;;8.20;3.75;;;;;;;27.67;25.62;102229.56;5043425;28;20029;-83
2023/05/24 10:01:38;;;;;;;8.43;3.90;;;;;;;26.95;25.37;102217.66;5044353;28;20040;-83
2023/05/24 10:04:05;;;;;;;10.48;3.95;;;;;;;25.24;28.37;102226.66;5026625;28;20107;-83
2023/05/24 10:06:36;;;;;;;10.70;4.35;;;;;;;23.07;31.88;102229.13;5060428;28;20358;-83
2023/05/24 10:09:04;;;;;;;8.80;4.07;;;;;;;21.77;32.65;102237.53;5044741;28;20029;-83
2023/05/24 10:11:31;;;;;;;10.43;3.80;;;;;;;23.47;31.94;102228.56;5055579;28;20013;-82
2023/05/24 10:13:58;;;;;;;10.35;4.45;;;;;;;25.87;28.84;102222.72;5043725;28;20044;-82
2023/05/24 10:16:24;;;;;;;9.90;4.05;;;;;;;25.36;27.67;102218.34;5051115;28;20037;-82
2023/05/24 10:18:49;;;;;;;11.57;4.05;;;;;;;24.18;30.02;102212.53;5042992;28;20031;-82
2023/05/24 10:21:18;;;;;;;9.65;3.97;;;;;;;22.53;31.96;102219.00;5042896;28;20514;-82
2023/05/24 10:23:50;;;;;;;8.68;4.18;;;;;;;22.78;32.63;102226.91;5043369;28;20021;-82
2023/05/24 10:26:16;;;;;;;10.88;4.03;;;;;;;23.03;32.40;102222.22;5045456;28;20025;-83
2023/05/24 10:28:51;;;;;;;12.68;4.57;;;;;;;24.86;30.66;102219.19;5043076;28;20040;-83
2023/05/24 10:31:23;;;;;;;8.55;4.28;;;;;;;26.46;28.02;102218.88;5043038;28;20025;-82
2023/05/24 10:33:50;;;;;;;11.60;3.83;;;;;;;28.17;25.86;102209.84;5044466;28;20440;-83
2023/05/24 10:36:17;;;;;;;10.13;3.75;;;;;;;29.36;24.65;102209.06;5051033;28;20025;-83
2023/05/24 10:38:45;;;;;;;9.50;4.10;;;;;;;28.46;24.69;102206.81;5042527;28;20132;-84
2023/05/24 10:41:12;;;;;;;8.88;3.70;;;;;;;25.98;26.90;102214.38;5051395;28;20495;-83
2023/05/24 10:43:38;;;;;;;8.38;3.58;;;;;;;24.01;30.68;102223.03;5049520;28;20817;-83
2023/05/24 10:46:09;;;;;;;8.15;3.33;;;;;;;21.99;32.88;102220.50;5053413;28;20025;-83
2023/05/24 10:48:36;;;;;;;9.45;3.80;;;;;;;20.66;35.57;102225.00;5042412;28;20035;-83
2023/05/24 10:51:33;;;;;;;9.98;3.85;;;;;;;20.03;36.97;102226.66;5041861;28;20730;-83
2023/05/24 10:54:16;;;;;;;8.48;3.90;;;;;;;19.57;37.78;102218.97;5044271;28;20028;-83
2023/05/24 10:56:49;;;;;;;8.75;3.78;;;;;;;18.96;38.55;102222.97;5042774;28;20562;-82
2023/05/24 10:59:36;;;;;;;7.40;4.22;;;;;;;19.33;39.02;102215.19;5042384;28;20040;-83
2023/05/24 11:02:05;;;;;;;10.05;4.10;;;;;;;19.29;39.54;102225.31;5041945;28;20289;-83
2023/05/24 11:04:36;;;;;;;10.20;3.50;;;;;;;19.17;38.80;102212.63;5025697;28;20028;-82
2023/05/24 11:07:04;;;;;;;8.00;3.70;;;;;;;19.10;38.77;102227.47;5042286;28;20695;-83
2023/05/24 11:09:30;;;;;;;10.88;4.18;;;;;;;18.87;39.11;102212.78;5023970;28;20016;-83
2023/05/24 11:12:01;;;;;;;7.45;3.70;;;;;;;18.88;39.19;102212.66;5041843;28;20101;-82
2023/05/24 11:14:28;;;;;;;9.50;3.63;;;;;;;18.56;38.94;102213.81;5048318;28;20032;-82
2023/05/24 11:16:53;;;;;;;7.60;3.53;;;;;;;18.20;39.58;102209.75;5045355;28;20084;-82
2023/05/24 11:19:21;;;;;;;7.07;3.65;;;;;;;18.10;40.88;102219.34;5041689;28;20502;-82